Time;durP1;ratioP1;P1;durP2;ratioP2;P2;SDS_P1;SDS_P2;PMS_P1;PMS_P2;Temp;Humidity;BMP_temperature;BMP_pressure;BME280_temperature;BME280_humidity;BME280_pressure;Samples;Min_cycle;Max_cycle;Signal;HPM_P1;HPM_P2
2021/06/16 00:02:25;;;;;;;8.05;6.80;;;;;;;20.64;68.35;100468.66;5027306;28;20052;-58
2021/06/16 00:04:52;;;;;;;7.38;6.65;;;;;;;20.65;68.59;100464.13;5009771;28;20579;-59
2021/06/16 00:07:18;;;;;;;8.75;6.57;;;;;;;20.63;68.49;100464.28;5006320;28;20061;-60
2021/06/16 00:09:45;;;;;;;8.20;6.47;;;;;;;20.63;68.52;100468.81;5029626;28;20689;-60
2021/06/16 00:12:12;;;;;;;7.63;6.90;;;;;;;20.66;68.79;100460.47;5033032;28;22555;-60
2021/06/16 00:14:39;;;;;;;7.82;6.60;;;;;;;20.64;68.77;100463.28;5029820;28;20075;-62
2021/06/16 00:17:07;;;;;;;8.18;7.35;;;;;;;20.61;68.92;100460.88;5020809;28;20056;-60
2021/06/16 00:19:35;;;;;;;7.85;7.05;;;;;;;20.57;68.61;100464.81;5019652;28;20747;-61
2021/06/16 00:22:02;;;;;;;7.95;6.97;;;;;;;20.56;68.70;100462.28;5028895;28;20083;-57
2021/06/16 00:24:28;;;;;;;9.77;7.60;;;;;;;20.51;68.75;100462.66;5033922;28;20107;-63
2021/06/16 00:26:55;;;;;;;10.32;7.63;;;;;;;20.48;68.84;100462.91;5023607;28;20045;-60
2021/06/16 00:29:21;;;;;;;8.98;7.43;;;;;;;20.46;68.98;100456.00;5019157;28;20053;-59
2021/06/16 00:31:48;;;;;;;8.27;7.47;;;;;;;20.39;69.26;100458.34;5028371;28;20049;-62
2021/06/16 00:34:14;;;;;;;8.07;7.28;;;;;;;20.40;69.50;100456.53;5019971;28;20497;-62
2021/06/16 00:36:42;;;;;;;8.40;7.00;;;;;;;20.40;69.67;100457.38;5019906;28;20699;-61
2021/06/16 00:39:09;;;;;;;8.30;7.18;;;;;;;20.40;69.70;100454.69;5016651;28;20045;-62
2021/06/16 00:41:36;;;;;;;7.85;6.97;;;;;;;20.39;69.67;100462.88;5020508;28;20053;-59
2021/06/16 00:44:04;;;;;;;8.80;7.18;;;;;;;20.33;69.90;100446.25;5017802;28;20058;-63
2021/06/16 00:46:32;;;;;;;8.70;7.03;;;;;;;20.35;69.87;100459.56;5018263;28;20056;-62
2021/06/16 00:48:58;;;;;;;10.77;7.65;;;;;;;20.36;69.68;100455.03;5017361;28;20447;-63
2021/06/16 00:51:25;;;;;;;8.05;7.22;;;;;;;20.35;69.64;100458.72;5015758;28;20923;-63
2021/06/16 00:53:52;;;;;;;9.77;7.43;;;;;;;20.30;69.55;100454.56;5019178;28;20045;-62
2021/06/16 00:56:18;;;;;;;9.40;7.38;;;;;;;20.27;69.75;100460.25;5017954;28;20056;-66
2021/06/16 00:58:45;;;;;;;8.00;7.22;;;;;;;20.26;69.99;100463.91;5018500;28;20059;-62
2021/06/16 01:01:18;;;;;;;7.47;6.78;;;;;;;20.23;70.02;100469.56;5016852;28;20185;-61
2021/06/16 01:03:56;;;;;;;9.07;7.43;;;;;;;20.22;70.16;100469.69;4998254;28;20508;-59
2021/06/16 01:06:31;;;;;;;8.00;7.20;;;;;;;20.21;70.24;100460.75;5019270;28;20053;-59
2021/06/16 01:09:29;;;;;;;7.50;6.70;;;;;;;20.17;70.16;100462.00;5019434;28;20076;-59
2021/06/16 01:12:03;;;;;;;9.52;7.30;;;;;;;20.15;69.86;100461.28;5009369;28;20653;-58
2021/06/16 01:14:41;;;;;;;8.52;7.70;;;;;;;20.12;70.35;100458.03;5012463;28;20135;-60
2021/06/16 01:17:10;;;;;;;9.20;7.65;;;;;;;20.09;70.21;100463.66;5010459;28;20071;-59
2021/06/16 01:19:51;;;;;;;8.75;7.90;;;;;;;20.03;70.67;100456.97;5016399;28;20056;-58
2021/06/16 01:22:29;;;;;;;9.63;7.40;;;;;;;20.00;70.53;100453.66;5015924;28;20548;-61
2021/06/16 01:24:56;;;;;;;9.50;7.55;;;;;;;19.95;70.93;100451.41;5013547;28;20049;-59
2021/06/16 01:27:25;;;;;;;9.88;7.75;;;;;;;19.95;70.99;100449.56;5019711;28;20042;-61
2021/06/16 01:29:53;;;;;;;9.45;7.57;;;;;;;19.99;70.99;100455.50;5017153;28;20049;-60
2021/06/16 01:32:22;;;;;;;8.32;7.28;;;;;;;19.96;71.25;100443.22;5013693;28;20509;-60
2021/06/16 01:34:49;;;;;;;9.30;7.57;;;;;;;19.98;71.37;100444.91;5016096;28;20050;-59
2021/06/16 01:37:16;;;;;;;9.90;7.25;;;;;;;20.00;71.02;100450.97;5018709;28;20801;-60
2021/06/16 01:39:44;;;;;;;8.35;6.88;;;;;;;20.00;71.18;100438.41;5019614;28;20959;-62
2021/06/16 01:42:15;;;;;;;8.05;7.25;;;;;;;20.03;71.07;100440.81;5013689;28;20779;-59
2021/06/16 01:44:42;;;;;;;9.93;7.22;;;;;;;20.04;70.81;100447.06;5018216;28;22227;-60
2021/06/16 01:47:09;;;;;;;10.02;7.38;;;;;;;20.02;70.97;100440.97;5015841;28;20042;-59
2021/06/16 01:49:37;;;;;;;8.25;7.35;;;;;;;19.99;70.97;100442.06;5014934;28;20053;-60
2021/06/16 01:52:05;;;;;;;9.00;7.35;;;;;;;19.93;70.99;100434.53;5018227;28;20053;-60
2021/06/16 01:54:34;;;;;;;7.65;6.93;;;;;;;19.93;70.94;100442.59;5014333;28;20071;-60
2021/06/16 01:57:01;;;;;;;7.95;7.15;;;;;;;19.90;71.15;100435.66;5019401;28;20045;-65
2021/06/16 01:59:29;;;;;;;8.38;7.57;;;;;;;19.84;71.55;100433.47;5017251;28;20133;-58
2021/06/16 02:01:56;;;;;;;8.40;7.47;;;;;;;19.84;71.97;100441.53;5010750;28;20060;-58
2021/06/16 02:04:23;;;;;;;9.32;7.70;;;;;;;19.83;71.55;100437.16;5015132;28;20053;-59
2021/06/16 02:06:58;;;;;;;10.32;7.32;;;;;;;19.85;71.95;100437.00;5013700;28;20049;-59
2021/06/16 02:09:26;;;;;;;7.18;6.53;;;;;;;19.83;71.62;100436.31;5019853;28;20052;-59
2021/06/16 02:11:53;;;;;;;9.23;7.43;;;;;;;19.82;71.76;100442.69;5017125;28;20489;-61
2021/06/16 02:14:21;;;;;;;9.30;7.57;;;;;;;19.80;71.73;100441.94;4995204;28;20176;-59
2021/06/16 02:17:00;;;;;;;8.43;7.45;;;;;;;19.79;72.05;100429.50;5022593;28;20061;-60
2021/06/16 02:19:29;;;;;;;8.57;7.68;;;;;;;19.77;72.00;100435.00;5013463;28;20041;-58
2021/06/16 02:22:00;;;;;;;10.10;7.72;;;;;;;19.72;71.94;100433.66;5015429;28;20057;-59
2021/06/16 02:24:27;;;;;;;8.57;7.15;;;;;;;19.70;72.30;100433.78;5018610;28;20048;-59
2021/06/16 02:26:54;;;;;;;8.80;7.90;;;;;;;19.68;71.92;100426.84;5014208;28;20053;-58
2021/06/16 02:29:23;;;;;;;9.00;7.47;;;;;;;19.66;72.21;100435.06;5002490;28;20080;-59
2021/06/16 02:31:49;;;;;;;9.10;7.47;;;;;;;19.63;72.24;100438.00;5015660;28;20055;-56
2021/06/16 02:34:16;;;;;;;9.82;7.45;;;;;;;19.61;72.61;100437.28;5011267;28;20111;-61
2021/06/16 02:36:46;;;;;;;8.93;8.02;;;;;;;19.59;72.56;100431.16;5019714;28;20156;-59
2021/06/16 02:39:35;;;;;;;8.50;7.60;;;;;;;19.60;72.66;100427.50;5012351;28;20056;-60
2021/06/16 02:42:04;;;;;;;8.68;7.63;;;;;;;19.57;72.54;100427.75;5016807;28;20416;-62
2021/06/16 02:44:31;;;;;;;8.10;7.15;;;;;;;19.53;72.68;100428.97;5011784;28;20063;-58
2021/06/16 02:46:59;;;;;;;8.82;7.68;;;;;;;19.51;72.83;100423.75;5012368;28;20092;-59
2021/06/16 02:49:48;;;;;;;7.75;7.05;;;;;;;19.48;72.95;100429.34;5019671;28;20057;-59
2021/06/16 02:52:19;;;;;;;8.52;7.70;;;;;;;19.46;72.95;100417.88;5010644;28;20811;-61
2021/06/16 02:54:51;;;;;;;10.68;7.38;;;;;;;19.48;73.05;100420.44;5012357;28;20060;-59
2021/06/16 02:57:21;;;;;;;10.27;7.75;;;;;;;19.43;72.78;100415.44;5011002;28;20553;-59
2021/06/16 02:59:50;;;;;;;10.55;7.57;;;;;;;19.38;73.05;100414.13;4998354;28;20053;-60
2021/06/16 03:02:21;;;;;;;8.48;6.93;;;;;;;19.37;73.27;100420.47;5020090;28;20049;-60
2021/06/16 03:04:49;;;;;;;10.75;7.70;;;;;;;19.37;73.13;100415.09;5015190;28;20139;-58
2021/06/16 03:07:16;;;;;;;10.70;7.78;;;;;;;19.38;72.87;100414.97;5011231;28;20069;-59
2021/06/16 03:09:45;;;;;;;9.85;7.93;;;;;;;19.35;74.00;100417.09;5012968;28;20055;-59
2021/06/16 03:12:15;;;;;;;11.00;8.30;;;;;;;19.31;73.63;100408.41;4993700;28;20654;-60
2021/06/16 03:14:42;;;;;;;8.23;7.00;;;;;;;19.31;73.66;100408.41;5017659;28;20053;-62
2021/06/16 03:17:10;;;;;;;11.70;7.95;;;;;;;19.28;73.76;100411.34;5011445;28;20066;-61
2021/06/16 03:19:40;;;;;;;8.20;7.35;;;;;;;19.24;73.73;100405.38;5007111;28;20060;-59
2021/06/16 03:22:09;;;;;;;10.38;7.95;;;;;;;19.22;73.52;100403.78;5016103;28;20049;-59
2021/06/16 03:24:38;;;;;;;8.83;7.93;;;;;;;19.19;74.03;100402.25;5011226;28;20053;-57
2021/06/16 03:27:05;;;;;;;10.00;7.57;;;;;;;19.21;73.93;100399.41;5013445;28;20057;-62
2021/06/16 03:29:34;;;;;;;9.63;7.80;;;;;;;19.23;73.51;100397.44;5013876;28;20045;-59
2021/06/16 03:32:02;;;;;;;8.30;7.47;;;;;;;19.24;73.77;100402.69;5012104;28;20064;-58
2021/06/16 03:34:28;;;;;;;9.30;7.72;;;;;;;19.24;73.95;100405.38;5013231;28;20046;-62
2021/06/16 03:36:57;;;;;;;9.65;8.15;;;;;;;19.30;73.34;100409.41;5005933;28;20127;-63
2021/06/16 03:39:24;;;;;;;8.32;7.40;;;;;;;19.29;73.75;100413.06;5014154;28;20489;-59
2021/06/16 03:41:51;;;;;;;44.13;13.80;;;;;;;19.32;73.99;100406.59;5013364;28;20045;-60
2021/06/16 03:44:17;;;;;;;12.07;7.90;;;;;;;19.35;73.52;100401.81;5011727;28;20057;-62
2021/06/16 03:46:46;;;;;;;10.85;7.60;;;;;;;19.38;73.17;100408.75;5016225;28;20559;-60
2021/06/16 03:49:15;;;;;;;26.27;10.45;;;;;;;19.38;73.19;100406.06;5015947;28;20509;-58
2021/06/16 03:51:43;;;;;;;8.75;7.65;;;;;;;19.41;72.82;100408.50;5017763;28;20488;-62
2021/06/16 03:54:15;;;;;;;8.98;7.65;;;;;;;19.46;72.61;100406.28;5013368;28;20049;-61
2021/06/16 03:56:42;;;;;;;12.18;7.70;;;;;;;19.51;72.47;100407.66;5011993;28;20053;-61
2021/06/16 03:59:10;;;;;;;9.15;7.97;;;;;;;19.52;72.20;100409.31;5018022;28;20049;-61
2021/06/16 04:01:40;;;;;;;10.57;7.53;;;;;;;19.50;72.32;100407.78;5008520;28;20062;-60
2021/06/16 04:04:11;;;;;;;8.95;7.63;;;;;;;19.50;72.09;100410.47;5017631;28;20099;-61
2021/06/16 04:06:42;;;;;;;9.50;7.63;;;;;;;19.47;72.43;100400.78;5012064;28;20151;-61
2021/06/16 04:09:10;;;;;;;8.35;7.55;;;;;;;19.51;72.46;100401.44;4996359;28;20053;-61
2021/06/16 04:11:38;;;;;;;8.63;6.93;;;;;;;19.59;72.58;100393.56;5018280;28;20049;-63
2021/06/16 04:14:05;;;;;;;10.60;7.50;;;;;;;19.67;71.88;100401.84;5015127;28;20060;-60
2021/06/16 04:16:31;;;;;;;9.35;7.65;;;;;;;19.71;71.43;100408.63;5018507;28;20147;-60
2021/06/16 04:18:58;;;;;;;9.68;7.43;;;;;;;19.75;71.65;100399.34;5007745;28;20103;-59
2021/06/16 04:21:25;;;;;;;8.80;7.85;;;;;;;19.80;71.13;100397.13;5016140;28;20049;-59
2021/06/16 04:23:52;;;;;;;14.20;7.63;;;;;;;19.85;71.32;100400.25;5012363;28;20084;-60
2021/06/16 04:26:21;;;;;;;8.68;7.40;;;;;;;19.94;70.83;100404.00;5013474;28;20129;-57
2021/06/16 04:28:48;;;;;;;8.20;7.13;;;;;;;19.98;70.45;100391.16;5015113;28;20041;-59
2021/06/16 04:31:15;;;;;;;9.23;7.18;;;;;;;20.00;70.36;100390.00;5012098;28;20053;-60
2021/06/16 04:33:42;;;;;;;12.18;7.20;;;;;;;20.03;70.16;100392.44;5018603;28;20072;-63
2021/06/16 04:36:09;;;;;;;8.43;6.78;;;;;;;20.01;70.25;100393.56;5018818;28;20049;-59
2021/06/16 04:38:36;;;;;;;12.27;7.72;;;;;;;20.01;70.30;100393.56;5012810;28;20041;-59
2021/06/16 04:41:03;;;;;;;9.00;7.32;;;;;;;20.03;69.74;100403.19;5021191;28;20520;-60
2021/06/16 04:43:30;;;;;;;11.45;7.53;;;;;;;20.10;70.52;100403.53;4995119;28;20057;-58
2021/06/16 04:45:56;;;;;;;8.70;7.53;;;;;;;20.11;69.93;100411.47;5013883;28;20056;-63
2021/06/16 04:48:23;;;;;;;10.02;7.68;;;;;;;20.17;69.62;100410.06;5024061;28;20045;-62
2021/06/16 04:50:50;;;;;;;8.80;7.78;;;;;;;20.22;69.53;100405.16;5024191;28;20049;-59
2021/06/16 04:53:16;;;;;;;7.90;6.65;;;;;;;20.29;68.97;100401.81;5020237;28;20049;-62
2021/06/16 04:55:43;;;;;;;12.55;7.95;;;;;;;20.33;68.42;100410.44;5016673;28;20077;-62
2021/06/16 04:58:09;;;;;;;9.63;7.18;;;;;;;20.36;68.54;100410.22;5016283;28;20053;-60
2021/06/16 05:00:36;;;;;;;8.85;6.70;;;;;;;20.47;69.19;100407.41;5020476;28;20059;-60
2021/06/16 05:03:02;;;;;;;10.05;6.78;;;;;;;20.62;69.14;100410.59;5013078;28;20545;-62
2021/06/16 05:05:29;;;;;;;7.68;6.97;;;;;;;20.72;67.91;100411.50;5021768;28;20050;-60
2021/06/16 05:07:56;;;;;;;7.75;7.03;;;;;;;20.75;67.35;100405.84;5023253;28;20043;-59
2021/06/16 05:10:22;;;;;;;7.85;6.68;;;;;;;20.75;67.49;100400.47;5019409;28;20065;-61
2021/06/16 05:12:49;;;;;;;7.95;7.13;;;;;;;20.73;67.13;100407.81;5021121;28;20142;-60
2021/06/16 05:15:16;;;;;;;9.32;7.05;;;;;;;20.70;67.25;100404.53;5015146;28;20077;-61
2021/06/16 05:17:43;;;;;;;8.43;7.15;;;;;;;20.72;67.88;100400.72;5009484;28;20059;-61
2021/06/16 05:20:12;;;;;;;8.45;7.60;;;;;;;20.78;67.15;100388.59;5016260;28;20111;-60
2021/06/16 05:22:40;;;;;;;9.85;7.88;;;;;;;20.83;67.01;100397.06;5015544;28;20057;-60
2021/06/16 05:25:09;;;;;;;7.97;6.80;;;;;;;20.92;67.15;100398.97;5003467;28;20096;-60
2021/06/16 05:27:37;;;;;;;8.23;7.15;;;;;;;20.91;66.75;100398.09;5015387;28;20064;-60
2021/06/16 05:30:05;;;;;;;8.95;7.28;;;;;;;20.96;66.69;100392.28;5019563;28;20045;-60
2021/06/16 05:32:33;;;;;;;8.68;7.50;;;;;;;21.00;66.17;100393.72;5018913;28;20530;-59
2021/06/16 05:34:59;;;;;;;12.40;7.82;;;;;;;20.98;66.68;100391.16;5010164;28;20410;-60
2021/06/16 05:37:26;;;;;;;8.55;7.15;;;;;;;21.09;66.74;100387.50;5020043;28;20984;-60
2021/06/16 05:39:52;;;;;;;9.73;8.00;;;;;;;21.17;66.19;100384.97;5021768;28;20056;-59
2021/06/16 05:42:19;;;;;;;9.82;8.00;;;;;;;21.22;65.87;100387.28;5016511;28;20517;-58
2021/06/16 05:44:45;;;;;;;9.50;7.50;;;;;;;21.21;66.38;100389.13;5014992;28;20053;-58
2021/06/16 05:47:12;;;;;;;8.77;7.53;;;;;;;21.29;66.04;100391.94;5016221;28;20041;-57
2021/06/16 05:49:38;;;;;;;8.45;7.50;;;;;;;21.34;65.69;100384.31;5020151;28;20100;-57
2021/06/16 05:52:05;;;;;;;8.43;7.18;;;;;;;21.43;65.69;100389.81;5012699;28;20064;-56
2021/06/16 05:54:32;;;;;;;8.70;7.80;;;;;;;21.44;65.69;100391.53;5019390;28;20069;-56
2021/06/16 05:56:58;;;;;;;8.38;7.53;;;;;;;21.52;65.24;100391.69;4993602;28;20060;-60
2021/06/16 05:59:25;;;;;;;11.38;7.53;;;;;;;21.66;65.61;100391.25;5013378;28;20046;-62
2021/06/16 06:01:51;;;;;;;10.18;7.68;;;;;;;21.84;64.38;100394.06;5017379;28;20504;-58
2021/06/16 06:04:18;;;;;;;8.68;7.88;;;;;;;21.96;63.63;100396.44;5013229;28;20049;-59
2021/06/16 06:06:45;;;;;;;8.65;7.68;;;;;;;22.07;63.49;100389.22;5017936;28;20148;-58
2021/06/16 06:09:11;;;;;;;10.35;7.13;;;;;;;22.85;61.67;100383.38;5013789;28;20046;-61
2021/06/16 06:11:38;;;;;;;11.20;6.82;;;;;;;24.03;58.58;100378.59;5019595;28;20046;-62
2021/06/16 06:14:05;;;;;;;8.70;6.60;;;;;;;25.38;54.40;100376.81;5014264;28;20050;-61
2021/06/16 06:16:32;;;;;;;9.90;6.35;;;;;;;26.62;50.71;100384.66;5013116;28;20657;-60
2021/06/16 06:18:59;;;;;;;6.93;5.95;;;;;;;27.50;47.22;100377.06;5017639;28;20421;-61
2021/06/16 06:21:30;;;;;;;8.98;6.03;;;;;;;28.33;45.26;100370.75;5016692;28;20060;-62
2021/06/16 06:23:58;;;;;;;8.77;5.88;;;;;;;28.60;44.20;100378.25;5018223;28;20069;-67
2021/06/16 06:26:29;;;;;;;8.25;6.30;;;;;;;28.72;43.33;100374.00;5014918;28;21634;-60
2021/06/16 06:28:56;;;;;;;6.40;5.32;;;;;;;29.31;44.31;100372.00;5012166;28;20080;-62
2021/06/16 06:31:23;;;;;;;9.38;5.78;;;;;;;29.96;41.68;100375.56;5010998;28;20080;-60
2021/06/16 06:33:50;;;;;;;9.73;5.88;;;;;;;30.44;40.94;100381.16;5017762;28;21103;-60
2021/06/16 06:36:16;;;;;;;6.55;5.30;;;;;;;30.86;39.57;100377.41;5028332;28;20049;-62
2021/06/16 06:38:43;;;;;;;11.57;5.82;;;;;;;31.12;38.67;100377.56;5017752;28;20046;-60
2021/06/16 06:41:10;;;;;;;9.43;5.43;;;;;;;31.12;38.53;100379.44;5017255;28;20060;-63
2021/06/16 06:43:37;;;;;;;7.47;4.88;;;;;;;30.95;39.10;100374.31;5016934;28;20682;-62
2021/06/16 06:46:03;;;;;;;11.30;6.00;;;;;;;31.07;39.38;100380.03;5012419;28;20065;-61
2021/06/16 06:48:30;;;;;;;10.50;5.93;;;;;;;31.16;38.57;100372.53;5027475;28;20053;-60
2021/06/16 06:50:57;;;;;;;9.75;6.00;;;;;;;30.91;38.52;100383.13;5014870;28;20052;-62
2021/06/16 06:53:24;;;;;;;7.68;5.97;;;;;;;30.92;39.44;100371.97;5022441;28;20073;-63
2021/06/16 06:55:51;;;;;;;6.68;5.93;;;;;;;31.11;39.30;100377.75;5026606;28;20068;-62
2021/06/16 06:58:18;;;;;;;6.15;5.55;;;;;;;30.75;39.05;100367.06;5019430;28;20053;-62
2021/06/16 07:00:44;;;;;;;7.40;5.55;;;;;;;30.43;40.42;100369.41;5021365;28;20417;-62
2021/06/16 07:03:11;;;;;;;11.23;6.22;;;;;;;30.17;40.57;100363.78;5019768;28;20052;-61
2021/06/16 07:05:37;;;;;;;7.40;5.50;;;;;;;30.09;41.80;100367.50;5006052;28;23127;-62
2021/06/16 07:08:04;;;;;;;8.65;5.72;;;;;;;30.10;41.67;100362.88;5009708;28;20053;-63
2021/06/16 07:10:31;;;;;;;7.43;6.28;;;;;;;30.12;40.29;100356.19;5012706;28;20529;-61
2021/06/16 07:12:57;;;;;;;8.27;6.30;;;;;;;29.86;40.79;100353.22;5026222;28;20048;-62
2021/06/16 07:15:24;;;;;;;8.52;6.32;;;;;;;29.86;41.53;100351.34;5015704;28;20050;-62
2021/06/16 07:17:50;;;;;;;9.73;5.88;;;;;;;29.92;41.98;100361.44;5022595;28;20060;-61
2021/06/16 07:20:17;;;;;;;8.95;6.40;;;;;;;29.86;42.65;100354.06;5015770;28;20045;-61
2021/06/16 07:22:46;;;;;;;13.68;6.78;;;;;;;29.88;42.98;100353.88;5019543;28;20050;-69
2021/06/16 07:25:14;;;;;;;10.18;5.90;;;;;;;29.74;42.80;100354.81;5015206;28;20046;-63
2021/06/16 07:27:40;;;;;;;7.18;5.43;;;;;;;29.71;43.34;100357.94;5014411;28;20084;-63
2021/06/16 07:30:07;;;;;;;8.18;6.40;;;;;;;29.43;42.78;100352.44;5023357;28;20053;-62
2021/06/16 07:32:35;;;;;;;10.43;6.50;;;;;;;29.10;44.36;100360.25;5014998;28;20136;-61
2021/06/16 07:35:03;;;;;;;11.63;7.70;;;;;;;28.28;44.68;100353.09;5014684;28;20057;-65
2021/06/16 07:37:30;;;;;;;8.35;6.65;;;;;;;28.04;46.75;100358.75;5020442;28;20112;-58
2021/06/16 07:39:57;;;;;;;9.32;6.93;;;;;;;28.01;46.23;100353.69;5020232;28;20056;-59
2021/06/16 07:42:24;;;;;;;11.80;8.02;;;;;;;28.03;46.18;100348.88;5025720;28;20057;-58
2021/06/16 07:44:50;;;;;;;10.73;6.80;;;;;;;28.08;46.66;100351.06;5019208;28;20053;-62
2021/06/16 07:47:17;;;;;;;9.25;7.10;;;;;;;28.03;46.29;100351.59;5028313;28;20053;-63
2021/06/16 07:49:43;;;;;;;11.70;7.97;;;;;;;27.96;45.86;100355.28;5016619;28;20053;-58
2021/06/16 07:52:10;;;;;;;8.02;7.13;;;;;;;27.85;46.60;100349.25;5019369;28;20509;-59
2021/06/16 07:54:36;;;;;;;12.60;8.05;;;;;;;28.04;46.49;100349.72;5026330;28;20115;-58
2021/06/16 07:57:03;;;;;;;8.23;6.82;;;;;;;28.38;46.88;100351.94;5024067;28;20106;-59
2021/06/16 07:59:30;;;;;;;8.75;7.43;;;;;;;28.66;45.17;100352.94;5031067;28;20046;-60
2021/06/16 08:01:57;;;;;;;8.90;7.70;;;;;;;28.61;44.36;100349.97;5020314;28;20054;-55
2021/06/16 08:04:24;;;;;;;8.85;7.20;;;;;;;28.68;45.05;100340.00;5024710;28;20049;-57
2021/06/16 08:06:51;;;;;;;10.63;8.18;;;;;;;28.69;43.97;100338.09;5024818;28;20056;-55
2021/06/16 08:09:18;;;;;;;11.70;8.18;;;;;;;28.80;43.59;100341.25;5020550;28;20055;-60
2021/06/16 08:11:45;;;;;;;8.90;7.65;;;;;;;29.10;44.46;100343.88;5021135;28;20068;-59
2021/06/16 08:14:12;;;;;;;11.23;7.28;;;;;;;29.54;44.15;100336.38;5021880;28;20068;-59
2021/06/16 08:16:38;;;;;;;10.27;7.70;;;;;;;29.88;42.34;100341.06;5016880;28;22955;-63
2021/06/16 08:19:05;;;;;;;10.52;7.68;;;;;;;29.56;42.99;100344.38;4981685;28;20060;-61
2021/06/16 08:21:32;;;;;;;10.70;7.20;;;;;;;29.29;43.40;100340.50;5018426;28;22237;-59
2021/06/16 08:23:58;;;;;;;8.88;7.55;;;;;;;29.07;45.37;100336.94;5022096;28;20052;-59
2021/06/16 08:26:26;;;;;;;11.40;7.70;;;;;;;28.73;44.95;100328.53;5020324;28;20165;-58
2021/06/16 08:28:53;;;;;;;10.50;7.18;;;;;;;28.63;45.66;100335.13;5019667;28;20045;-60
2021/06/16 08:31:19;;;;;;;11.88;7.60;;;;;;;28.55;45.24;100327.03;5017212;28;20049;-62
2021/06/16 08:33:46;;;;;;;10.07;7.72;;;;;;;28.48;46.07;100323.41;5011605;28;20041;-58
2021/06/16 08:36:12;;;;;;;11.80;7.90;;;;;;;28.54;46.85;100319.91;5018363;28;20057;-59
2021/06/16 08:38:39;;;;;;;13.50;7.57;;;;;;;28.48;45.45;100317.97;5019214;28;20053;-61
2021/06/16 08:41:08;;;;;;;9.57;8.15;;;;;;;28.38;46.06;100320.13;5021605;28;20515;-62
2021/06/16 08:43:40;;;;;;;9.07;7.63;;;;;;;28.12;47.16;100317.84;5026785;28;20049;-59
2021/06/16 08:46:13;;;;;;;9.65;7.97;;;;;;;27.97;47.36;100314.25;5023492;28;20394;-65
2021/06/16 08:48:41;;;;;;;9.27;7.68;;;;;;;27.79;47.46;100317.34;5019751;28;20421;-60
2021/06/16 08:51:09;;;;;;;10.35;7.55;;;;;;;27.88;47.30;100310.75;5018477;28;20057;-59
2021/06/16 08:53:36;;;;;;;11.98;8.20;;;;;;;27.99;46.18;100311.38;5002399;28;20071;-58
2021/06/16 08:56:03;;;;;;;12.30;7.32;;;;;;;28.01;46.16;100310.16;5020907;28;20042;-59
2021/06/16 08:58:35;;;;;;;13.75;8.57;;;;;;;27.97;45.40;100307.97;5015669;28;20924;-59
2021/06/16 09:01:02;;;;;;;9.75;7.65;;;;;;;27.90;45.95;100310.59;5019167;28;20042;-62
2021/06/16 09:03:29;;;;;;;9.18;7.97;;;;;;;27.94;45.70;100309.19;5014482;28;20062;-60
2021/06/16 09:06:07;;;;;;;8.15;7.20;;;;;;;28.05;46.94;100311.44;5023845;28;20144;-58
2021/06/16 09:08:50;;;;;;;11.60;8.07;;;;;;;28.21;46.03;100305.84;5019162;28;20457;-58
2021/06/16 09:11:18;;;;;;;11.35;8.07;;;;;;;28.27;45.08;100309.69;5019202;28;20049;-61
2021/06/16 09:13:45;;;;;;;11.15;8.20;;;;;;;28.35;45.80;100311.47;5023746;28;20132;-60
2021/06/16 09:16:29;;;;;;;8.98;7.40;;;;;;;28.35;46.43;100308.75;5000060;28;20041;-62
2021/06/16 09:18:59;;;;;;;9.10;7.40;;;;;;;28.36;45.31;100308.56;5023601;28;20416;-58
2021/06/16 09:21:35;;;;;;;11.73;7.47;;;;;;;28.27;45.63;100291.50;5018099;28;20041;-58
2021/06/16 09:24:02;;;;;;;9.27;8.02;;;;;;;28.34;45.50;100302.44;5019580;28;20136;-58
2021/06/16 09:26:34;;;;;;;11.07;7.65;;;;;;;28.39;45.13;100301.88;5002332;28;20068;-58
2021/06/16 09:29:01;;;;;;;10.43;8.07;;;;;;;28.29;44.98;100299.47;5020467;28;20049;-60
2021/06/16 09:31:38;;;;;;;13.90;8.45;;;;;;;28.20;45.31;100295.13;5020711;28;20053;-58
2021/06/16 09:34:10;;;;;;;9.38;7.97;;;;;;;28.04;45.62;100292.56;5021202;28;20065;-60
2021/06/16 09:36:56;;;;;;;11.50;8.18;;;;;;;27.86;46.46;100292.97;5020359;28;20111;-64
2021/06/16 09:39:26;;;;;;;10.10;8.00;;;;;;;27.80;46.56;100291.81;5021128;28;20140;-60
2021/06/16 09:41:54;;;;;;;;;;;;;;;27.76;46.50;100286.94;5018173;28;20053;-59
2021/06/16 09:44:39;;;;;;;9.25;7.93;;;;;;;27.74;46.56;100281.66;4999742;28;20440;-63
2021/06/16 09:47:14;;;;;;;10.45;8.10;;;;;;;27.78;46.70;100285.72;5022868;28;20049;-60
2021/06/16 09:49:53;;;;;;;16.48;9.82;;;;;;;27.73;47.65;100287.28;5018626;28;20132;-59
2021/06/16 09:52:34;;;;;;;10.43;8.45;;;;;;;27.77;46.64;100284.03;5016573;28;20058;-60
2021/06/16 09:55:03;;;;;;;11.75;7.28;;;;;;;27.77;47.12;100285.91;5023498;28;20136;-59
2021/06/16 09:57:31;;;;;;;11.17;8.90;;;;;;;27.72;47.07;100275.56;5020358;28;20053;-60
2021/06/16 10:00:02;;;;;;;12.60;8.45;;;;;;;27.73;47.49;100281.84;5000889;28;20121;-60
2021/06/16 10:02:30;;;;;;;10.13;8.30;;;;;;;27.83;47.18;100282.44;5017630;28;20038;-59
2021/06/16 10:04:59;;;;;;;8.65;7.82;;;;;;;27.91;47.85;100275.03;5018989;28;20054;-60
2021/06/16 10:07:30;;;;;;;10.05;8.27;;;;;;;28.01;46.77;100276.63;5015527;28;20068;-64
2021/06/16 10:10:01;;;;;;;12.15;8.15;;;;;;;28.05;46.22;100267.03;5010292;28;20042;-59
2021/06/16 10:12:31;;;;;;;11.15;8.70;;;;;;;28.11;46.54;100266.31;5015873;28;20060;-60
2021/06/16 10:15:00;;;;;;;9.00;7.65;;;;;;;28.22;46.56;100265.84;5017284;28;20069;-61
2021/06/16 10:17:27;;;;;;;13.05;8.70;;;;;;;28.24;45.60;100264.63;5021184;28;20068;-58
2021/06/16 10:19:54;;;;;;;10.55;7.90;;;;;;;28.31;46.69;100262.00;5022475;28;20119;-58
2021/06/16 10:22:21;;;;;;;9.30;8.40;;;;;;;28.40;46.69;100262.72;5024807;28;20366;-58
2021/06/16 10:24:49;;;;;;;9.60;8.30;;;;;;;28.46;46.49;100260.09;5022063;28;20424;-61
2021/06/16 10:27:30;;;;;;;13.32;8.32;;;;;;;28.45;46.10;100255.69;5014969;28;20053;-58
2021/06/16 10:30:03;;;;;;;11.25;8.10;;;;;;;28.41;46.04;100256.25;5017037;28;20065;-59
2021/06/16 10:32:38;;;;;;;9.48;7.82;;;;;;;28.41;45.74;100250.81;5012899;28;20053;-60
2021/06/16 10:35:08;;;;;;;9.85;7.38;;;;;;;28.52;45.32;100250.28;5010387;28;20064;-59
2021/06/16 10:37:40;;;;;;;8.55;7.65;;;;;;;28.60;44.47;100252.94;4988542;28;20061;-60
2021/06/16 10:40:28;;;;;;;9.90;7.72;;;;;;;28.77;44.68;100253.53;4999879;28;20133;-59
2021/06/16 10:43:05;;;;;;;12.00;8.63;;;;;;;28.92;44.06;100243.44;5001910;28;20049;-58
2021/06/16 10:45:39;;;;;;;10.32;8.65;;;;;;;29.03;44.11;100245.66;5002499;28;20053;-56
2021/06/16 10:48:08;;;;;;;11.57;8.32;;;;;;;29.09;43.95;100239.44;5002599;28;20054;-59
2021/06/16 10:50:46;;;;;;;11.55;7.82;;;;;;;29.14;43.31;100233.38;5001087;28;20046;-59
2021/06/16 10:53:13;;;;;;;10.77;7.93;;;;;;;29.18;42.53;100231.94;5002690;28;20530;-57
2021/06/16 10:55:52;;;;;;;10.80;8.20;;;;;;;29.26;42.27;100229.94;5001120;28;20053;-58
2021/06/16 10:58:26;;;;;;;11.38;7.82;;;;;;;29.32;42.26;100220.09;4999832;28;20058;-57
2021/06/16 11:01:12;;;;;;;12.15;7.35;;;;;;;29.41;42.11;100226.31;4997224;28;20385;-58
2021/06/16 11:03:51;;;;;;;10.18;8.15;;;;;;;29.53;41.75;100216.53;5001226;28;20046;-58
2021/06/16 11:06:36;;;;;;;8.00;7.07;;;;;;;29.57;41.65;100223.28;4981823;28;20053;-59
2021/06/16 11:09:05;;;;;;;10.40;7.70;;;;;;;29.54;42.01;100216.31;4995597;28;20046;-58
2021/06/16 11:11:47;;;;;;;9.15;8.18;;;;;;;29.57;42.57;100213.19;5008356;28;20076;-59
2021/06/16 11:14:35;;;;;;;9.60;7.70;;;;;;;29.74;42.58;100210.16;5003347;28;20054;-58
2021/06/16 11:17:06;;;;;;;7.72;7.00;;;;;;;29.94;40.80;100209.22;4987004;28;20061;-60
2021/06/16 11:19:36;;;;;;;9.75;7.45;;;;;;;30.12;39.72;100213.31;4990022;28;20058;-61
2021/06/16 11:22:04;;;;;;;7.75;6.95;;;;;;;30.21;38.58;100204.78;4998668;28;20042;-59
2021/06/16 11:25:09;;;;;;;9.95;7.00;;;;;;;30.36;38.05;100201.88;4997846;28;20058;-59
2021/06/16 11:28:04;;;;;;;10.00;7.00;;;;;;;30.55;36.83;100198.38;5001814;28;20092;-62
2021/06/16 11:30:50;;;;;;;10.57;6.88;;;;;;;30.60;36.93;100195.88;5002582;28;20056;-58
2021/06/16 11:33:24;;;;;;;7.57;6.53;;;;;;;30.61;36.01;100193.97;4998564;28;20065;-63